sensor_id;sensor_type;location;lat;lon;timestamp;P1;durP1;ratioP1;P2;durP2;ratioP2
20150;SDS011;10236;49.638;6.830;2023-02-26T00:00:11;7.47;;;1.70;;
20150;SDS011;10236;49.638;6.830;2023-02-26T00:02:39;5.77;;;1.90;;
20150;SDS011;10236;49.638;6.830;2023-02-26T00:05:06;5.43;;;1.80;;
20150;SDS011;10236;49.638;6.830;2023-02-26T00:07:32;5.03;;;1.93;;
20150;SDS011;10236;49.638;6.830;2023-02-26T00:09:58;4.43;;;1.77;;
20150;SDS011;10236;49.638;6.830;2023-02-26T00:12:26;8.93;;;2.27;;
20150;SDS011;10236;49.638;6.830;2023-02-26T00:14:52;5.87;;;2.10;;
20150;SDS011;10236;49.638;6.830;2023-02-26T00:19:56;5.23;;;1.50;;
20150;SDS011;10236;49.638;6.830;2023-02-26T00:22:22;9.53;;;2.77;;
20150;SDS011;10236;49.638;6.830;2023-02-26T00:24:48;5.63;;;2.00;;
20150;SDS011;10236;49.638;6.830;2023-02-26T00:27:14;6.77;;;1.80;;
20150;SDS011;10236;49.638;6.830;2023-02-26T00:29:40;6.93;;;2.77;;
20150;SDS011;10236;49.638;6.830;2023-02-26T00:32:06;6.63;;;2.10;;
20150;SDS011;10236;49.638;6.830;2023-02-26T00:34:33;5.53;;;2.10;;
20150;SDS011;10236;49.638;6.830;2023-02-26T00:39:37;8.33;;;2.50;;
20150;SDS011;10236;49.638;6.830;2023-02-26T00:42:05;7.53;;;2.90;;
20150;SDS011;10236;49.638;6.830;2023-02-26T00:44:32;7.17;;;3.03;;
20150;SDS011;10236;49.638;6.830;2023-02-26T00:46:59;4.80;;;2.63;;
20150;SDS011;10236;49.638;6.830;2023-02-26T00:52:14;7.53;;;3.93;;
20150;SDS011;10236;49.638;6.830;2023-02-26T00:54:42;6.43;;;1.97;;
20150;SDS011;10236;49.638;6.830;2023-02-26T00:57:08;5.80;;;2.10;;
20150;SDS011;10236;49.638;6.830;2023-02-26T00:59:34;7.63;;;2.97;;
20150;SDS011;10236;49.638;6.830;2023-02-26T01:02:00;9.97;;;2.13;;
20150;SDS011;10236;49.638;6.830;2023-02-26T01:04:26;9.37;;;1.80;;
20150;SDS011;10236;49.638;6.830;2023-02-26T01:06:53;8.03;;;2.00;;
20150;SDS011;10236;49.638;6.830;2023-02-26T01:11:49;6.60;;;1.87;;
20150;SDS011;10236;49.638;6.830;2023-02-26T01:14:15;5.73;;;1.43;;
20150;SDS011;10236;49.638;6.830;2023-02-26T01:19:36;4.47;;;1.73;;
20150;SDS011;10236;49.638;6.830;2023-02-26T01:22:12;4.33;;;1.67;;
20150;SDS011;10236;49.638;6.830;2023-02-26T01:24:40;4.67;;;1.73;;
20150;SDS011;10236;49.638;6.830;2023-02-26T01:27:06;4.17;;;1.37;;
20150;SDS011;10236;49.638;6.830;2023-02-26T01:29:32;6.33;;;1.43;;
20150;SDS011;10236;49.638;6.830;2023-02-26T01:32:06;6.00;;;1.60;;
20150;SDS011;10236;49.638;6.830;2023-02-26T01:34:34;6.80;;;1.30;;
20150;SDS011;10236;49.638;6.830;2023-02-26T01:39:44;5.33;;;1.57;;
20150;SDS011;10236;49.638;6.830;2023-02-26T01:42:14;6.63;;;1.70;;
20150;SDS011;10236;49.638;6.830;2023-02-26T01:44:41;4.30;;;1.23;;
20150;SDS011;10236;49.638;6.830;2023-02-26T01:47:15;6.50;;;1.53;;
20150;SDS011;10236;49.638;6.830;2023-02-26T01:49:42;7.67;;;1.80;;
20150;SDS011;10236;49.638;6.830;2023-02-26T01:54:52;7.60;;;2.00;;
20150;SDS011;10236;49.638;6.830;2023-02-26T01:57:18;4.57;;;1.67;;
20150;SDS011;10236;49.638;6.830;2023-02-26T01:59:47;5.70;;;1.60;;
20150;SDS011;10236;49.638;6.830;2023-02-26T02:02:15;6.40;;;1.67;;
20150;SDS011;10236;49.638;6.830;2023-02-26T02:04:41;4.53;;;1.40;;
20150;SDS011;10236;49.638;6.830;2023-02-26T02:07:07;4.43;;;1.77;;
20150;SDS011;10236;49.638;6.830;2023-02-26T02:09:33;8.57;;;1.80;;
20150;SDS011;10236;49.638;6.830;2023-02-26T02:14:48;6.60;;;1.57;;
20150;SDS011;10236;49.638;6.830;2023-02-26T02:17:38;9.00;;;1.47;;
20150;SDS011;10236;49.638;6.830;2023-02-26T02:22:56;5.47;;;1.70;;
20150;SDS011;10236;49.638;6.830;2023-02-26T02:25:42;8.17;;;2.13;;
20150;SDS011;10236;49.638;6.830;2023-02-26T02:31:04;8.17;;;1.90;;
20150;SDS011;10236;49.638;6.830;2023-02-26T02:33:33;8.10;;;2.07;;
20150;SDS011;10236;49.638;6.830;2023-02-26T02:36:02;7.97;;;1.90;;
20150;SDS011;10236;49.638;6.830;2023-02-26T02:38:32;5.93;;;1.63;;
20150;SDS011;10236;49.638;6.830;2023-02-26T02:41:10;9.10;;;2.10;;
20150;SDS011;10236;49.638;6.830;2023-02-26T02:43:38;6.47;;;2.10;;
20150;SDS011;10236;49.638;6.830;2023-02-26T02:46:07;6.80;;;2.03;;
20150;SDS011;10236;49.638;6.830;2023-02-26T02:53:53;7.37;;;2.73;;
20150;SDS011;10236;49.638;6.830;2023-02-26T02:56:28;6.77;;;2.57;;
20150;SDS011;10236;49.638;6.830;2023-02-26T02:58:59;5.67;;;2.40;;
20150;SDS011;10236;49.638;6.830;2023-02-26T03:01:26;6.07;;;2.43;;
20150;SDS011;10236;49.638;6.830;2023-02-26T03:03:57;5.30;;;2.80;;
20150;SDS011;10236;49.638;6.830;2023-02-26T03:06:26;6.80;;;3.20;;
20150;SDS011;10236;49.638;6.830;2023-02-26T03:08:52;9.77;;;3.80;;
20150;SDS011;10236;49.638;6.830;2023-02-26T03:11:18;8.90;;;3.40;;
20150;SDS011;10236;49.638;6.830;2023-02-26T03:13:44;8.90;;;3.57;;
20150;SDS011;10236;49.638;6.830;2023-02-26T03:21:38;8.73;;;3.70;;
20150;SDS011;10236;49.638;6.830;2023-02-26T03:24:13;12.17;;;3.50;;
20150;SDS011;10236;49.638;6.830;2023-02-26T03:26:46;11.80;;;3.63;;
20150;SDS011;10236;49.638;6.830;2023-02-26T03:29:18;7.83;;;3.43;;
20150;SDS011;10236;49.638;6.830;2023-02-26T03:31:54;9.23;;;3.30;;
20150;SDS011;10236;49.638;6.830;2023-02-26T03:34:29;6.33;;;2.47;;
20150;SDS011;10236;49.638;6.830;2023-02-26T03:36:58;5.57;;;2.83;;
20150;SDS011;10236;49.638;6.830;2023-02-26T03:39:28;8.77;;;2.77;;
20150;SDS011;10236;49.638;6.830;2023-02-26T03:41:57;6.27;;;2.90;;
20150;SDS011;10236;49.638;6.830;2023-02-26T03:44:44;9.70;;;3.03;;
20150;SDS011;10236;49.638;6.830;2023-02-26T03:47:12;5.53;;;2.90;;
20150;SDS011;10236;49.638;6.830;2023-02-26T03:49:44;6.63;;;3.33;;
20150;SDS011;10236;49.638;6.830;2023-02-26T03:52:10;11.47;;;3.30;;
20150;SDS011;10236;49.638;6.830;2023-02-26T03:54:54;8.13;;;3.50;;
20150;SDS011;10236;49.638;6.830;2023-02-26T03:57:22;14.47;;;3.50;;
20150;SDS011;10236;49.638;6.830;2023-02-26T03:59:48;8.20;;;3.60;;
20150;SDS011;10236;49.638;6.830;2023-02-26T04:02:21;11.50;;;3.53;;
20150;SDS011;10236;49.638;6.830;2023-02-26T04:04:50;7.13;;;3.50;;
20150;SDS011;10236;49.638;6.830;2023-02-26T04:07:17;9.13;;;3.63;;
20150;SDS011;10236;49.638;6.830;2023-02-26T04:09:45;7.37;;;3.40;;
20150;SDS011;10236;49.638;6.830;2023-02-26T04:12:11;6.13;;;3.47;;
20150;SDS011;10236;49.638;6.830;2023-02-26T04:14:37;13.17;;;3.90;;
20150;SDS011;10236;49.638;6.830;2023-02-26T04:17:04;8.60;;;3.90;;
20150;SDS011;10236;49.638;6.830;2023-02-26T04:19:30;9.17;;;4.03;;
20150;SDS011;10236;49.638;6.830;2023-02-26T04:21:56;8.80;;;3.93;;
20150;SDS011;10236;49.638;6.830;2023-02-26T04:24:22;12.67;;;4.10;;
20150;SDS011;10236;49.638;6.830;2023-02-26T04:26:48;9.73;;;4.30;;
20150;SDS011;10236;49.638;6.830;2023-02-26T04:29:14;7.07;;;3.40;;
20150;SDS011;10236;49.638;6.830;2023-02-26T04:31:40;7.13;;;3.87;;
20150;SDS011;10236;49.638;6.830;2023-02-26T04:34:06;7.97;;;4.23;;
20150;SDS011;10236;49.638;6.830;2023-02-26T04:36:32;7.57;;;4.00;;
20150;SDS011;10236;49.638;6.830;2023-02-26T04:38:58;7.47;;;3.67;;
20150;SDS011;10236;49.638;6.830;2023-02-26T04:41:24;10.93;;;4.03;;
20150;SDS011;10236;49.638;6.830;2023-02-26T04:43:50;5.87;;;3.60;;
20150;SDS011;10236;49.638;6.830;2023-02-26T04:46:16;6.27;;;3.03;;
20150;SDS011;10236;49.638;6.830;2023-02-26T04:48:42;8.27;;;3.83;;
20150;SDS011;10236;49.638;6.830;2023-02-26T04:51:08;6.53;;;3.50;;
20150;SDS011;10236;49.638;6.830;2023-02-26T04:53:34;6.33;;;3.73;;
20150;SDS011;10236;49.638;6.830;2023-02-26T04:55:59;7.77;;;3.30;;
20150;SDS011;10236;49.638;6.830;2023-02-26T04:58:26;6.73;;;3.20;;
20150;SDS011;10236;49.638;6.830;2023-02-26T05:00:52;7.03;;;3.33;;
20150;SDS011;10236;49.638;6.830;2023-02-26T05:03:19;7.47;;;2.90;;
20150;SDS011;10236;49.638;6.830;2023-02-26T05:05:45;7.07;;;3.20;;
20150;SDS011;10236;49.638;6.830;2023-02-26T05:08:11;6.13;;;3.43;;
20150;SDS011;10236;49.638;6.830;2023-02-26T05:10:37;5.33;;;3.17;;
20150;SDS011;10236;49.638;6.830;2023-02-26T05:13:03;7.00;;;3.40;;
20150;SDS011;10236;49.638;6.830;2023-02-26T05:15:29;7.07;;;3.33;;
20150;SDS011;10236;49.638;6.830;2023-02-26T05:17:55;6.80;;;3.27;;
20150;SDS011;10236;49.638;6.830;2023-02-26T05:20:21;4.83;;;3.30;;
20150;SDS011;10236;49.638;6.830;2023-02-26T05:22:47;6.80;;;3.50;;
20150;SDS011;10236;49.638;6.830;2023-02-26T05:25:13;5.67;;;3.33;;
20150;SDS011;10236;49.638;6.830;2023-02-26T05:27:40;7.93;;;3.57;;
20150;SDS011;10236;49.638;6.830;2023-02-26T05:30:07;5.93;;;3.67;;
20150;SDS011;10236;49.638;6.830;2023-02-26T05:32:33;6.47;;;3.20;;
20150;SDS011;10236;49.638;6.830;2023-02-26T05:34:59;6.43;;;3.07;;
20150;SDS011;10236;49.638;6.830;2023-02-26T05:37:25;6.27;;;3.30;;
20150;SDS011;10236;49.638;6.830;2023-02-26T05:39:51;6.53;;;4.07;;
20150;SDS011;10236;49.638;6.830;2023-02-26T05:42:16;5.53;;;3.23;;
20150;SDS011;10236;49.638;6.830;2023-02-26T05:44:42;4.80;;;3.30;;
20150;SDS011;10236;49.638;6.830;2023-02-26T05:47:08;9.37;;;3.40;;
20150;SDS011;10236;49.638;6.830;2023-02-26T05:49:34;6.23;;;2.43;;
20150;SDS011;10236;49.638;6.830;2023-02-26T05:52:01;5.97;;;3.27;;
20150;SDS011;10236;49.638;6.830;2023-02-26T05:54:27;7.73;;;3.60;;
20150;SDS011;10236;49.638;6.830;2023-02-26T05:56:53;7.53;;;3.10;;
20150;SDS011;10236;49.638;6.830;2023-02-26T05:59:20;7.60;;;3.00;;
20150;SDS011;10236;49.638;6.830;2023-02-26T06:01:46;12.40;;;3.60;;
20150;SDS011;10236;49.638;6.830;2023-02-26T06:04:12;7.53;;;3.30;;
20150;SDS011;10236;49.638;6.830;2023-02-26T06:06:38;7.03;;;3.27;;
20150;SDS011;10236;49.638;6.830;2023-02-26T06:09:04;6.07;;;2.97;;
20150;SDS011;10236;49.638;6.830;2023-02-26T06:11:30;6.17;;;3.27;;
20150;SDS011;10236;49.638;6.830;2023-02-26T06:13:56;6.73;;;2.83;;
20150;SDS011;10236;49.638;6.830;2023-02-26T06:16:22;4.13;;;3.27;;
20150;SDS011;10236;49.638;6.830;2023-02-26T06:18:48;6.30;;;3.00;;
20150;SDS011;10236;49.638;6.830;2023-02-26T06:21:15;8.10;;;2.97;;
20150;SDS011;10236;49.638;6.830;2023-02-26T06:23:41;7.27;;;2.70;;
20150;SDS011;10236;49.638;6.830;2023-02-26T06:26:07;4.33;;;3.10;;
20150;SDS011;10236;49.638;6.830;2023-02-26T06:28:33;5.63;;;3.30;;
20150;SDS011;10236;49.638;6.830;2023-02-26T06:30:59;6.17;;;2.87;;
20150;SDS011;10236;49.638;6.830;2023-02-26T06:33:25;6.03;;;3.00;;
20150;SDS011;10236;49.638;6.830;2023-02-26T06:35:51;4.87;;;3.33;;
20150;SDS011;10236;49.638;6.830;2023-02-26T06:38:17;6.77;;;3.00;;
20150;SDS011;10236;49.638;6.830;2023-02-26T06:40:44;5.17;;;2.70;;
20150;SDS011;10236;49.638;6.830;2023-02-26T06:43:10;5.83;;;2.60;;
20150;SDS011;10236;49.638;6.830;2023-02-26T06:45:36;8.67;;;3.27;;
20150;SDS011;10236;49.638;6.830;2023-02-26T06:48:02;6.13;;;3.57;;
20150;SDS011;10236;49.638;6.830;2023-02-26T06:50:28;9.87;;;3.17;;
20150;SDS011;10236;49.638;6.830;2023-02-26T06:52:55;7.00;;;3.20;;
20150;SDS011;10236;49.638;6.830;2023-02-26T06:55:21;3.73;;;3.07;;
20150;SDS011;10236;49.638;6.830;2023-02-26T06:57:50;5.40;;;3.20;;
20150;SDS011;10236;49.638;6.830;2023-02-26T07:00:16;5.30;;;3.47;;
20150;SDS011;10236;49.638;6.830;2023-02-26T07:02:42;8.53;;;3.80;;
20150;SDS011;10236;49.638;6.830;2023-02-26T07:05:08;7.93;;;3.60;;
20150;SDS011;10236;49.638;6.830;2023-02-26T07:07:34;6.03;;;3.13;;
20150;SDS011;10236;49.638;6.830;2023-02-26T07:10:00;8.57;;;3.47;;
20150;SDS011;10236;49.638;6.830;2023-02-26T07:12:26;5.93;;;3.27;;
20150;SDS011;10236;49.638;6.830;2023-02-26T07:14:52;6.50;;;3.37;;
20150;SDS011;10236;49.638;6.830;2023-02-26T07:17:18;6.90;;;3.07;;
20150;SDS011;10236;49.638;6.830;2023-02-26T07:19:48;7.20;;;3.17;;
20150;SDS011;10236;49.638;6.830;2023-02-26T07:22:15;7.40;;;3.50;;
20150;SDS011;10236;49.638;6.830;2023-02-26T07:24:41;5.60;;;3.20;;
20150;SDS011;10236;49.638;6.830;2023-02-26T07:27:08;6.60;;;3.10;;
20150;SDS011;10236;49.638;6.830;2023-02-26T07:29:34;9.73;;;3.80;;
20150;SDS011;10236;49.638;6.830;2023-02-26T07:32:00;9.83;;;3.73;;
20150;SDS011;10236;49.638;6.830;2023-02-26T07:34:27;6.37;;;3.07;;
20150;SDS011;10236;49.638;6.830;2023-02-26T07:36:52;6.13;;;2.70;;
20150;SDS011;10236;49.638;6.830;2023-02-26T07:39:19;5.00;;;3.03;;
20150;SDS011;10236;49.638;6.830;2023-02-26T07:41:45;5.20;;;3.10;;
20150;SDS011;10236;49.638;6.830;2023-02-26T07:44:11;7.80;;;3.10;;
20150;SDS011;10236;49.638;6.830;2023-02-26T07:46:37;6.47;;;3.57;;
20150;SDS011;10236;49.638;6.830;2023-02-26T07:49:03;6.90;;;3.60;;
20150;SDS011;10236;49.638;6.830;2023-02-26T07:51:28;8.37;;;3.77;;
20150;SDS011;10236;49.638;6.830;2023-02-26T07:53:54;5.50;;;2.77;;
20150;SDS011;10236;49.638;6.830;2023-02-26T07:56:20;5.07;;;3.03;;
20150;SDS011;10236;49.638;6.830;2023-02-26T07:58:46;6.23;;;3.73;;
20150;SDS011;10236;49.638;6.830;2023-02-26T08:01:12;5.60;;;3.30;;
20150;SDS011;10236;49.638;6.830;2023-02-26T08:03:38;6.63;;;3.27;;
20150;SDS011;10236;49.638;6.830;2023-02-26T08:06:04;8.60;;;3.43;;
20150;SDS011;10236;49.638;6.830;2023-02-26T08:08:31;5.40;;;3.40;;
20150;SDS011;10236;49.638;6.830;2023-02-26T08:11:00;5.67;;;3.50;;
20150;SDS011;10236;49.638;6.830;2023-02-26T08:13:26;5.87;;;3.40;;
20150;SDS011;10236;49.638;6.830;2023-02-26T08:15:52;8.23;;;3.20;;
20150;SDS011;10236;49.638;6.830;2023-02-26T08:18:18;8.47;;;3.70;;
20150;SDS011;10236;49.638;6.830;2023-02-26T08:20:44;8.27;;;3.67;;
20150;SDS011;10236;49.638;6.830;2023-02-26T08:23:10;7.60;;;2.87;;
20150;SDS011;10236;49.638;6.830;2023-02-26T08:25:36;5.13;;;3.03;;
20150;SDS011;10236;49.638;6.830;2023-02-26T08:28:02;4.93;;;2.37;;
20150;SDS011;10236;49.638;6.830;2023-02-26T08:30:28;6.53;;;3.30;;
20150;SDS011;10236;49.638;6.830;2023-02-26T08:32:55;5.73;;;2.90;;
20150;SDS011;10236;49.638;6.830;2023-02-26T08:35:21;5.90;;;2.30;;
20150;SDS011;10236;49.638;6.830;2023-02-26T08:37:47;7.80;;;2.90;;
20150;SDS011;10236;49.638;6.830;2023-02-26T08:40:13;5.50;;;2.77;;
20150;SDS011;10236;49.638;6.830;2023-02-26T08:42:39;4.80;;;2.60;;
20150;SDS011;10236;49.638;6.830;2023-02-26T08:45:05;6.70;;;2.73;;
20150;SDS011;10236;49.638;6.830;2023-02-26T08:47:31;5.13;;;2.57;;
20150;SDS011;10236;49.638;6.830;2023-02-26T08:49:58;6.03;;;2.73;;
20150;SDS011;10236;49.638;6.830;2023-02-26T08:52:24;6.40;;;2.93;;
20150;SDS011;10236;49.638;6.830;2023-02-26T08:54:50;5.00;;;2.63;;
20150;SDS011;10236;49.638;6.830;2023-02-26T08:57:16;6.03;;;2.73;;
20150;SDS011;10236;49.638;6.830;2023-02-26T08:59:42;4.07;;;2.77;;
20150;SDS011;10236;49.638;6.830;2023-02-26T09:02:11;5.47;;;2.50;;
20150;SDS011;10236;49.638;6.830;2023-02-26T09:04:37;5.00;;;2.57;;
20150;SDS011;10236;49.638;6.830;2023-02-26T09:07:03;6.03;;;2.80;;
20150;SDS011;10236;49.638;6.830;2023-02-26T09:09:30;5.57;;;2.50;;
20150;SDS011;10236;49.638;6.830;2023-02-26T09:11:56;9.70;;;2.80;;
20150;SDS011;10236;49.638;6.830;2023-02-26T09:14:23;5.10;;;3.00;;
20150;SDS011;10236;49.638;6.830;2023-02-26T09:16:48;5.67;;;2.77;;
20150;SDS011;10236;49.638;6.830;2023-02-26T09:19:15;5.67;;;2.97;;
20150;SDS011;10236;49.638;6.830;2023-02-26T09:21:41;5.53;;;3.00;;
20150;SDS011;10236;49.638;6.830;2023-02-26T09:24:08;7.87;;;3.93;;
20150;SDS011;10236;49.638;6.830;2023-02-26T09:26:34;4.47;;;2.53;;
20150;SDS011;10236;49.638;6.830;2023-02-26T09:29:00;4.77;;;2.23;;
20150;SDS011;10236;49.638;6.830;2023-02-26T09:31:26;4.13;;;2.37;;
20150;SDS011;10236;49.638;6.830;2023-02-26T09:33:52;4.07;;;2.33;;
20150;SDS011;10236;49.638;6.830;2023-02-26T09:36:18;4.80;;;1.93;;
20150;SDS011;10236;49.638;6.830;2023-02-26T09:38:44;6.53;;;2.50;;
20150;SDS011;10236;49.638;6.830;2023-02-26T09:41:18;6.37;;;2.20;;
20150;SDS011;10236;49.638;6.830;2023-02-26T09:49:27;3.20;;;1.70;;
20150;SDS011;10236;49.638;6.830;2023-02-26T09:51:57;2.37;;;1.63;;
20150;SDS011;10236;49.638;6.830;2023-02-26T09:54:26;4.73;;;1.63;;
20150;SDS011;10236;49.638;6.830;2023-02-26T09:56:54;6.63;;;1.97;;
20150;SDS011;10236;49.638;6.830;2023-02-26T09:59:21;3.63;;;1.30;;
20150;SDS011;10236;49.638;6.830;2023-02-26T10:01:51;2.13;;;1.50;;
20150;SDS011;10236;49.638;6.830;2023-02-26T10:07:15;3.33;;;1.80;;
20150;SDS011;10236;49.638;6.830;2023-02-26T10:09:48;1.73;;;1.30;;
20150;SDS011;10236;49.638;6.830;2023-02-26T10:12:17;3.23;;;1.50;;
20150;SDS011;10236;49.638;6.830;2023-02-26T10:20:26;3.17;;;1.23;;
20150;SDS011;10236;49.638;6.830;2023-02-26T10:25:41;3.30;;;1.60;;
20150;SDS011;10236;49.638;6.830;2023-02-26T10:31:04;2.00;;;1.20;;
20150;SDS011;10236;49.638;6.830;2023-02-26T10:33:49;6.30;;;1.00;;
20150;SDS011;10236;49.638;6.830;2023-02-26T10:36:21;3.17;;;1.77;;
20150;SDS011;10236;49.638;6.830;2023-02-26T10:38:49;2.47;;;1.03;;
20150;SDS011;10236;49.638;6.830;2023-02-26T10:41:17;2.73;;;1.03;;
20150;SDS011;10236;49.638;6.830;2023-02-26T10:43:49;4.60;;;1.10;;
20150;SDS011;10236;49.638;6.830;2023-02-26T10:48:51;1.90;;;0.93;;
20150;SDS011;10236;49.638;6.830;2023-02-26T10:51:21;2.97;;;0.97;;
20150;SDS011;10236;49.638;6.830;2023-02-26T10:53:57;1.37;;;0.97;;
20150;SDS011;10236;49.638;6.830;2023-02-26T10:56:25;2.50;;;1.27;;
20150;SDS011;10236;49.638;6.830;2023-02-26T10:58:52;2.63;;;1.40;;
20150;SDS011;10236;49.638;6.830;2023-02-26T11:01:20;1.37;;;1.00;;
20150;SDS011;10236;49.638;6.830;2023-02-26T11:03:47;2.30;;;1.20;;
20150;SDS011;10236;49.638;6.830;2023-02-26T11:06:19;3.53;;;1.00;;
20150;SDS011;10236;49.638;6.830;2023-02-26T11:08:46;2.53;;;0.90;;
20150;SDS011;10236;49.638;6.830;2023-02-26T11:13:59;1.53;;;0.70;;
20150;SDS011;10236;49.638;6.830;2023-02-26T11:16:28;2.77;;;1.63;;
20150;SDS011;10236;49.638;6.830;2023-02-26T11:18:54;2.63;;;0.80;;
20150;SDS011;10236;49.638;6.830;2023-02-26T11:21:24;2.53;;;1.10;;
20150;SDS011;10236;49.638;6.830;2023-02-26T11:24:00;1.63;;;1.00;;
20150;SDS011;10236;49.638;6.830;2023-02-26T11:26:30;3.20;;;1.87;;
20150;SDS011;10236;49.638;6.830;2023-02-26T11:28:57;3.13;;;1.63;;
20150;SDS011;10236;49.638;6.830;2023-02-26T11:31:24;1.70;;;0.80;;
20150;SDS011;10236;49.638;6.830;2023-02-26T11:33:51;2.27;;;0.70;;
20150;SDS011;10236;49.638;6.830;2023-02-26T11:36:21;3.87;;;0.83;;
20150;SDS011;10236;49.638;6.830;2023-02-26T11:38:55;4.53;;;1.00;;
20150;SDS011;10236;49.638;6.830;2023-02-26T11:41:24;2.00;;;1.00;;
20150;SDS011;10236;49.638;6.830;2023-02-26T11:43:58;2.73;;;1.00;;
20150;SDS011;10236;49.638;6.830;2023-02-26T11:46:25;3.23;;;0.90;;
20150;SDS011;10236;49.638;6.830;2023-02-26T11:48:52;1.57;;;0.80;;
20150;SDS011;10236;49.638;6.830;2023-02-26T11:51:21;3.07;;;1.00;;
20150;SDS011;10236;49.638;6.830;2023-02-26T11:53:56;1.77;;;0.97;;
20150;SDS011;10236;49.638;6.830;2023-02-26T11:56:36;2.17;;;1.03;;
20150;SDS011;10236;49.638;6.830;2023-02-26T11:59:27;2.73;;;0.87;;
20150;SDS011;10236;49.638;6.830;2023-02-26T12:01:52;1.67;;;1.00;;
20150;SDS011;10236;49.638;6.830;2023-02-26T12:07:11;1.30;;;0.97;;
20150;SDS011;10236;49.638;6.830;2023-02-26T12:09:38;2.00;;;0.90;;
20150;SDS011;10236;49.638;6.830;2023-02-26T12:22:47;2.20;;;0.60;;
20150;SDS011;10236;49.638;6.830;2023-02-26T12:35:46;1.47;;;0.60;;
20150;SDS011;10236;49.638;6.830;2023-02-26T12:40:59;0.93;;;0.67;;
20150;SDS011;10236;49.638;6.830;2023-02-26T12:51:08;1.93;;;0.70;;
20150;SDS011;10236;49.638;6.830;2023-02-26T12:53:44;2.47;;;0.70;;
20150;SDS011;10236;49.638;6.830;2023-02-26T12:56:26;2.43;;;0.80;;
20150;SDS011;10236;49.638;6.830;2023-02-26T13:03:54;2.20;;;0.80;;
20150;SDS011;10236;49.638;6.830;2023-02-26T13:09:21;2.57;;;0.67;;
20150;SDS011;10236;49.638;6.830;2023-02-26T13:11:54;1.27;;;0.70;;
20150;SDS011;10236;49.638;6.830;2023-02-26T13:14:28;1.93;;;0.60;;
20150;SDS011;10236;49.638;6.830;2023-02-26T13:17:00;1.23;;;0.60;;
20150;SDS011;10236;49.638;6.830;2023-02-26T13:19:31;2.47;;;1.03;;
20150;SDS011;10236;49.638;6.830;2023-02-26T13:22:00;1.53;;;0.80;;
20150;SDS011;10236;49.638;6.830;2023-02-26T13:26:53;1.33;;;1.00;;
20150;SDS011;10236;49.638;6.830;2023-02-26T13:29:24;1.97;;;1.20;;
20150;SDS011;10236;49.638;6.830;2023-02-26T13:31:54;4.67;;;1.50;;
20150;SDS011;10236;49.638;6.830;2023-02-26T13:37:28;2.23;;;1.00;;
20150;SDS011;10236;49.638;6.830;2023-02-26T13:40:05;1.30;;;0.70;;
20150;SDS011;10236;49.638;6.830;2023-02-26T13:50:51;2.53;;;1.03;;
20150;SDS011;10236;49.638;6.830;2023-02-26T13:56:12;1.73;;;0.60;;
20150;SDS011;10236;49.638;6.830;2023-02-26T13:58:40;2.50;;;0.80;;
20150;SDS011;10236;49.638;6.830;2023-02-26T14:01:17;2.37;;;0.80;;
20150;SDS011;10236;49.638;6.830;2023-02-26T14:03:50;2.17;;;0.83;;
20150;SDS011;10236;49.638;6.830;2023-02-26T14:08:49;3.60;;;0.93;;
20150;SDS011;10236;49.638;6.830;2023-02-26T14:13:41;2.17;;;0.60;;
20150;SDS011;10236;49.638;6.830;2023-02-26T14:16:12;0.93;;;0.50;;
20150;SDS011;10236;49.638;6.830;2023-02-26T14:26:27;2.60;;;0.50;;
20150;SDS011;10236;49.638;6.830;2023-02-26T14:31:22;1.13;;;0.40;;
20150;SDS011;10236;49.638;6.830;2023-02-26T14:39:15;1.43;;;0.50;;
20150;SDS011;10236;49.638;6.830;2023-02-26T14:41:44;1.23;;;0.60;;
20150;SDS011;10236;49.638;6.830;2023-02-26T14:44:17;1.30;;;1.00;;
20150;SDS011;10236;49.638;6.830;2023-02-26T14:46:44;1.87;;;0.83;;
20150;SDS011;10236;49.638;6.830;2023-02-26T14:49:14;0.63;;;0.40;;
20150;SDS011;10236;49.638;6.830;2023-02-26T14:51:50;0.77;;;0.50;;
20150;SDS011;10236;49.638;6.830;2023-02-26T15:12:59;2.17;;;0.80;;
20150;SDS011;10236;49.638;6.830;2023-02-26T15:18:09;1.37;;;0.90;;
20150;SDS011;10236;49.638;6.830;2023-02-26T15:20:46;0.83;;;0.70;;
20150;SDS011;10236;49.638;6.830;2023-02-26T15:25:41;2.60;;;0.70;;
20150;SDS011;10236;49.638;6.830;2023-02-26T15:28:12;3.03;;;0.70;;
20150;SDS011;10236;49.638;6.830;2023-02-26T15:30:39;1.27;;;0.80;;
20150;SDS011;10236;49.638;6.830;2023-02-26T15:33:09;2.53;;;1.17;;
20150;SDS011;10236;49.638;6.830;2023-02-26T15:35:36;1.20;;;0.80;;
20150;SDS011;10236;49.638;6.830;2023-02-26T15:38:02;1.97;;;0.80;;
20150;SDS011;10236;49.638;6.830;2023-02-26T15:40:37;3.83;;;1.00;;
20150;SDS011;10236;49.638;6.830;2023-02-26T15:43:04;2.60;;;1.60;;
20150;SDS011;10236;49.638;6.830;2023-02-26T15:48:04;2.77;;;1.50;;
20150;SDS011;10236;49.638;6.830;2023-02-26T15:50:34;2.40;;;1.43;;
20150;SDS011;10236;49.638;6.830;2023-02-26T15:53:01;7.57;;;2.73;;
20150;SDS011;10236;49.638;6.830;2023-02-26T15:55:30;4.77;;;1.73;;
20150;SDS011;10236;49.638;6.830;2023-02-26T15:57:57;4.83;;;2.27;;
20150;SDS011;10236;49.638;6.830;2023-02-26T16:00:23;1.90;;;1.10;;
20150;SDS011;10236;49.638;6.830;2023-02-26T16:02:51;5.30;;;2.87;;
20150;SDS011;10236;49.638;6.830;2023-02-26T16:05:18;4.07;;;2.03;;
20150;SDS011;10236;49.638;6.830;2023-02-26T16:07:44;2.77;;;1.13;;
20150;SDS011;10236;49.638;6.830;2023-02-26T16:10:14;3.40;;;1.33;;
20150;SDS011;10236;49.638;6.830;2023-02-26T16:12:41;2.23;;;0.90;;
20150;SDS011;10236;49.638;6.830;2023-02-26T16:15:12;4.07;;;1.17;;
20150;SDS011;10236;49.638;6.830;2023-02-26T16:17:39;1.93;;;1.20;;
20150;SDS011;10236;49.638;6.830;2023-02-26T16:20:11;3.40;;;1.20;;
20150;SDS011;10236;49.638;6.830;2023-02-26T16:22:46;1.43;;;0.90;;
20150;SDS011;10236;49.638;6.830;2023-02-26T16:30:46;2.07;;;1.53;;
20150;SDS011;10236;49.638;6.830;2023-02-26T16:33:14;1.30;;;1.00;;
20150;SDS011;10236;49.638;6.830;2023-02-26T16:35:42;1.90;;;0.83;;
20150;SDS011;10236;49.638;6.830;2023-02-26T16:38:19;9.07;;;4.00;;
20150;SDS011;10236;49.638;6.830;2023-02-26T16:40:46;2.90;;;1.47;;
20150;SDS011;10236;49.638;6.830;2023-02-26T16:45:55;1.63;;;1.20;;
20150;SDS011;10236;49.638;6.830;2023-02-26T16:48:22;1.90;;;1.00;;
20150;SDS011;10236;49.638;6.830;2023-02-26T16:50:52;2.60;;;1.37;;
20150;SDS011;10236;49.638;6.830;2023-02-26T16:53:20;1.73;;;0.77;;
20150;SDS011;10236;49.638;6.830;2023-02-26T16:55:50;4.50;;;0.80;;
20150;SDS011;10236;49.638;6.830;2023-02-26T16:58:16;2.00;;;0.93;;
20150;SDS011;10236;49.638;6.830;2023-02-26T17:00:43;1.43;;;0.80;;
20150;SDS011;10236;49.638;6.830;2023-02-26T17:03:11;1.53;;;0.83;;
20150;SDS011;10236;49.638;6.830;2023-02-26T17:05:38;4.53;;;0.80;;
20150;SDS011;10236;49.638;6.830;2023-02-26T17:08:13;2.80;;;1.30;;
20150;SDS011;10236;49.638;6.830;2023-02-26T17:10:47;3.00;;;1.13;;
20150;SDS011;10236;49.638;6.830;2023-02-26T17:13:25;2.23;;;0.83;;
20150;SDS011;10236;49.638;6.830;2023-02-26T17:15:52;3.60;;;1.00;;
20150;SDS011;10236;49.638;6.830;2023-02-26T17:18:18;2.40;;;0.90;;
20150;SDS011;10236;49.638;6.830;2023-02-26T17:20:44;2.03;;;0.83;;
20150;SDS011;10236;49.638;6.830;2023-02-26T17:23:15;1.40;;;1.00;;
20150;SDS011;10236;49.638;6.830;2023-02-26T17:25:46;2.47;;;1.00;;
20150;SDS011;10236;49.638;6.830;2023-02-26T17:28:15;4.00;;;2.20;;
20150;SDS011;10236;49.638;6.830;2023-02-26T17:30:42;3.80;;;1.40;;
20150;SDS011;10236;49.638;6.830;2023-02-26T17:33:08;2.70;;;1.07;;
20150;SDS011;10236;49.638;6.830;2023-02-26T17:35:36;11.93;;;5.50;;
20150;SDS011;10236;49.638;6.830;2023-02-26T17:38:02;4.47;;;2.03;;
20150;SDS011;10236;49.638;6.830;2023-02-26T17:40:30;2.27;;;1.33;;
20150;SDS011;10236;49.638;6.830;2023-02-26T17:42:56;12.13;;;5.43;;
20150;SDS011;10236;49.638;6.830;2023-02-26T17:45:24;6.40;;;3.03;;
20150;SDS011;10236;49.638;6.830;2023-02-26T17:47:50;2.20;;;1.00;;
20150;SDS011;10236;49.638;6.830;2023-02-26T17:50:21;2.83;;;1.50;;